createdAt,value
2018-09-24T00:00:23.224Z,7.40
2018-09-24T00:02:53.180Z,7.30
2018-09-24T00:05:22.975Z,7.30
2018-09-24T00:07:53.807Z,7.30
2018-09-24T00:10:27.687Z,7.30
2018-09-24T00:12:58.575Z,7.30
2018-09-24T00:15:30.408Z,7.20
2018-09-24T00:18:00.248Z,7.30
2018-09-24T00:20:32.102Z,7.20
2018-09-24T00:23:03.931Z,7.10
2018-09-24T00:25:33.791Z,7.00
2018-09-24T00:28:04.643Z,6.90
2018-09-24T00:30:36.479Z,6.80
2018-09-24T00:33:06.390Z,6.70
2018-09-24T00:35:36.307Z,6.60
2018-09-24T00:38:06.319Z,6.50
2018-09-24T00:40:36.215Z,6.60
2018-09-24T00:43:06.187Z,6.60
2018-09-24T00:45:37.318Z,6.60
2018-09-24T00:48:07.235Z,6.50
2018-09-24T00:50:38.098Z,6.40
2018-09-24T00:53:09.147Z,6.40
2018-09-24T00:55:43.186Z,6.30
2018-09-24T00:58:14.031Z,6.30
2018-09-24T01:00:43.931Z,6.30
2018-09-24T01:03:20.339Z,6.20
2018-09-24T01:05:50.347Z,6.20
2018-09-24T01:08:21.138Z,6.10
2018-09-24T01:10:51.950Z,6.20
2018-09-24T01:13:21.766Z,6.30
2018-09-24T01:15:51.594Z,6.40
2018-09-24T01:18:21.410Z,6.40
2018-09-24T01:20:52.243Z,6.50
2018-09-24T01:23:24.114Z,6.60
2018-09-24T01:25:53.914Z,6.60
2018-09-24T01:28:24.733Z,6.70
2018-09-24T01:30:55.587Z,6.80
2018-09-24T01:33:26.430Z,6.80
2018-09-24T01:35:56.233Z,6.90
2018-09-24T01:38:26.346Z,6.80
2018-09-24T01:40:58.194Z,6.70
2018-09-24T01:43:31.990Z,6.60
2018-09-24T01:46:03.887Z,6.50
2018-09-24T01:48:34.719Z,6.50
2018-09-24T01:51:08.034Z,6.50
2018-09-24T01:53:38.184Z,6.60
2018-09-24T01:56:13.606Z,6.70
2018-09-24T01:58:45.427Z,6.80
2018-09-24T02:01:21.167Z,6.80
2018-09-24T02:03:50.998Z,6.90
2018-09-24T02:06:20.819Z,6.90
2018-09-24T02:09:09.498Z,6.90
2018-09-24T02:11:44.991Z,6.90
2018-09-24T02:14:14.782Z,6.90
2018-09-24T02:16:45.646Z,6.90
2018-09-24T02:19:18.614Z,6.90
2018-09-24T02:21:50.514Z,7.00
2018-09-24T02:24:20.315Z,7.00
2018-09-24T02:26:51.143Z,7.00
2018-09-24T02:29:20.934Z,7.00
2018-09-24T02:31:52.125Z,7.00
2018-09-24T02:34:27.494Z,7.00
2018-09-24T02:36:57.890Z,7.00
2018-09-24T02:39:27.746Z,6.90
2018-09-24T02:42:03.422Z,7.00
2018-09-24T02:44:45.139Z,6.90
2018-09-24T02:47:16.970Z,7.00
2018-09-24T02:49:47.007Z,7.00
2018-09-24T02:52:16.878Z,7.00
2018-09-24T02:54:49.766Z,6.90
2018-09-24T02:57:20.639Z,6.90
2018-09-24T02:59:50.446Z,6.90
2018-09-24T03:02:28.747Z,6.90
2018-09-24T03:04:59.572Z,6.80
2018-09-24T03:07:30.422Z,6.70
2018-09-24T03:10:00.222Z,6.60
2018-09-24T03:12:30.962Z,6.40
2018-09-24T03:15:01.773Z,6.30
2018-09-24T03:17:31.595Z,6.20
2018-09-24T03:20:07.895Z,6.20
2018-09-24T03:22:37.783Z,6.30
2018-09-24T03:25:08.611Z,6.40
2018-09-24T03:27:39.443Z,6.40
2018-09-24T03:30:11.291Z,6.50
2018-09-24T03:32:41.257Z,6.50
2018-09-24T03:35:12.387Z,6.50
2018-09-24T03:37:42.194Z,6.60
2018-09-24T03:40:15.886Z,6.60
2018-09-24T03:42:46.736Z,6.60
2018-09-24T03:45:19.582Z,6.60
2018-09-24T03:47:51.542Z,6.60
2018-09-24T03:50:25.173Z,6.60
2018-09-24T03:52:54.950Z,6.70
2018-09-24T03:55:30.744Z,6.70
2018-09-24T03:58:02.610Z,6.70
2018-09-24T04:00:32.382Z,6.70
2018-09-24T04:03:02.226Z,6.70
2018-09-24T04:05:37.175Z,6.70
2018-09-24T04:08:12.182Z,6.70
2018-09-24T04:10:47.281Z,6.80
2018-09-24T04:13:22.351Z,6.80
2018-09-24T04:16:00.634Z,6.70
2018-09-24T04:18:37.974Z,6.60
2018-09-24T04:21:13.041Z,6.70
2018-09-24T04:23:50.138Z,6.70
2018-09-24T04:26:25.413Z,6.80
2018-09-24T04:29:08.070Z,6.80
2018-09-24T04:31:45.174Z,6.80
2018-09-24T04:34:21.263Z,6.80
2018-09-24T04:36:56.290Z,6.80
2018-09-24T04:39:34.601Z,6.90
2018-09-24T04:42:19.826Z,6.90
2018-09-24T04:45:02.518Z,6.80
2018-09-24T04:47:37.690Z,6.80
2018-09-24T04:50:12.954Z,6.80
2018-09-24T04:52:55.869Z,6.80
2018-09-24T04:55:31.979Z,6.70
2018-09-24T04:58:08.106Z,6.60
2018-09-24T05:00:45.335Z,6.60
2018-09-24T05:03:22.370Z,6.60
2018-09-24T05:05:58.510Z,6.70
2018-09-24T05:08:34.674Z,6.70
2018-09-24T05:11:13.246Z,6.70
2018-09-24T05:13:49.294Z,6.80
2018-09-24T05:16:24.632Z,6.80
2018-09-24T05:18:59.650Z,6.80
2018-09-24T05:21:36.358Z,6.80
2018-09-24T05:24:11.302Z,6.80
2018-09-24T05:26:51.966Z,6.80
2018-09-24T05:29:27.126Z,6.80
2018-09-24T05:32:05.178Z,6.80
2018-09-24T05:34:40.382Z,6.90
2018-09-24T05:37:17.286Z,6.90
2018-09-24T05:40:08.816Z,6.90
2018-09-24T05:43:00.438Z,6.90
2018-09-24T05:45:41.719Z,6.90
2018-09-24T05:48:18.806Z,6.90
2018-09-24T05:50:54.882Z,6.90
2018-09-24T05:53:29.934Z,6.90
2018-09-24T05:56:18.374Z,7.00
2018-09-24T05:58:57.219Z,7.00
2018-09-24T06:01:38.758Z,7.00
2018-09-24T06:04:14.782Z,7.10
2018-09-24T06:06:56.342Z,7.10
2018-09-24T06:09:34.814Z,7.10
2018-09-24T06:12:11.010Z,7.10
2018-09-24T06:14:49.989Z,7.20
2018-09-24T06:17:25.226Z,7.10
2018-09-24T06:20:11.726Z,7.10
2018-09-24T06:22:48.655Z,7.20
2018-09-24T06:25:24.642Z,7.20
2018-09-24T06:28:03.654Z,7.30
2018-09-24T06:30:38.770Z,7.40
2018-09-24T06:33:14.898Z,7.40
2018-09-24T06:35:50.038Z,7.50
2018-09-24T06:38:24.978Z,7.50
2018-09-24T06:41:03.694Z,7.60
2018-09-24T06:43:40.454Z,7.60
2018-09-24T06:46:15.619Z,7.70
2018-09-24T06:48:53.962Z,7.70
2018-09-24T06:51:32.738Z,7.80
2018-09-24T06:54:12.584Z,7.90
2018-09-24T06:56:47.642Z,7.90
2018-09-24T06:59:24.692Z,7.90
2018-09-24T07:02:00.723Z,7.80
2018-09-24T07:04:35.747Z,7.80
2018-09-24T07:07:11.868Z,7.80
2018-09-24T07:09:47.021Z,7.80
2018-09-24T07:12:23.244Z,7.90
2018-09-24T07:14:58.434Z,7.90
2018-09-24T07:17:33.578Z,8.10
2018-09-24T07:20:13.943Z,8.10
2018-09-24T07:22:53.031Z,8.20
2018-09-24T07:25:28.255Z,8.20
2018-09-24T07:28:04.651Z,8.40
2018-09-24T07:30:40.866Z,8.70
2018-09-24T07:33:16.073Z,8.80
2018-09-24T07:35:52.071Z,8.90
2018-09-24T07:38:27.259Z,9.10
2018-09-24T07:41:05.715Z,9.20
2018-09-24T07:43:40.970Z,9.00
2018-09-24T07:46:21.283Z,9.10
2018-09-24T07:49:00.131Z,9.40
2018-09-24T07:51:41.194Z,9.80
2018-09-24T07:54:16.218Z,9.80
2018-09-24T07:56:52.227Z,9.70
2018-09-24T07:59:28.278Z,9.60
2018-09-24T08:02:03.284Z,9.60
2018-09-24T08:04:39.198Z,9.90
2018-09-24T08:07:21.736Z,10.30
2018-09-24T08:09:56.850Z,10.80
2018-09-24T08:12:34.070Z,10.60
2018-09-24T08:15:09.275Z,10.70
2018-09-24T08:17:45.318Z,11.00
2018-09-24T08:20:20.357Z,11.00
2018-09-24T08:22:56.474Z,10.60
2018-09-24T08:25:47.742Z,10.30
2018-09-24T08:28:23.786Z,10.10
2018-09-24T08:31:10.962Z,9.70
2018-09-24T08:33:46.262Z,9.40
2018-09-24T08:36:24.200Z,9.30
2018-09-24T08:39:02.734Z,9.50
2018-09-24T08:41:38.942Z,9.80
2018-09-24T08:44:23.706Z,9.80
2018-09-24T08:47:00.926Z,9.60
2018-09-24T08:49:36.099Z,9.50
2018-09-24T08:52:16.566Z,9.80
2018-09-24T08:54:53.098Z,10.20
2018-09-24T08:57:30.238Z,9.90
2018-09-24T09:00:06.638Z,9.50
2018-09-24T09:02:41.863Z,9.30
2018-09-24T09:05:17.858Z,11.20
2018-09-24T09:07:54.850Z,11.50
2018-09-24T09:10:36.143Z,11.00
2018-09-24T09:13:14.630Z,10.40
2018-09-24T09:15:49.642Z,10.20
2018-09-24T09:18:24.458Z,10.10
2018-09-24T09:21:00.502Z,10.20
2018-09-24T09:23:37.322Z,12.80
2018-09-24T09:26:15.786Z,14.50
2018-09-24T09:28:59.105Z,13.70
2018-09-24T09:31:37.573Z,14.10
2018-09-24T09:34:13.506Z,13.20
2018-09-24T09:36:50.462Z,12.10
2018-09-24T09:39:25.514Z,12.90
2018-09-24T09:42:00.606Z,13.50
2018-09-24T09:44:35.811Z,12.80
2018-09-24T09:47:10.898Z,12.40
2018-09-24T09:49:46.918Z,12.30
2018-09-24T09:52:22.214Z,14.90
2018-09-24T09:54:58.270Z,16.90
2018-09-24T09:57:34.325Z,17.80
2018-09-24T10:00:10.982Z,18.90
2018-09-24T10:02:48.961Z,18.00
2018-09-24T10:05:24.106Z,17.90
2018-09-24T10:08:00.091Z,17.20
2018-09-24T10:10:36.250Z,17.30
2018-09-24T10:13:11.918Z,16.40
2018-09-24T10:15:48.034Z,14.60
2018-09-24T10:18:24.345Z,13.30
2018-09-24T10:21:11.154Z,12.50
2018-09-24T10:23:46.215Z,12.80
2018-09-24T10:26:21.345Z,12.80
2018-09-24T10:29:06.723Z,13.00
2018-09-24T10:31:45.497Z,14.60
2018-09-24T10:34:20.454Z,17.00
2018-09-24T10:36:55.461Z,16.40
2018-09-24T10:39:40.371Z,15.80
2018-09-24T10:42:17.762Z,16.20
2018-09-24T10:44:52.826Z,18.20
2018-09-24T10:47:29.802Z,18.00
2018-09-24T10:50:04.938Z,16.10
2018-09-24T10:52:46.930Z,14.70
2018-09-24T10:55:23.066Z,13.90
2018-09-24T10:57:58.378Z,13.00
2018-09-24T11:00:36.766Z,12.30
2018-09-24T11:03:12.962Z,12.40
2018-09-24T11:05:47.970Z,15.00
2018-09-24T11:08:22.982Z,18.20
2018-09-24T11:10:59.222Z,18.30
2018-09-24T11:13:34.306Z,18.20
2018-09-24T11:16:10.652Z,16.20
2018-09-24T11:18:45.737Z,13.80
2018-09-24T11:21:21.033Z,13.40
2018-09-24T11:23:58.173Z,13.00
2018-09-24T11:26:34.405Z,12.90
2018-09-24T11:29:10.493Z,12.40
2018-09-24T11:31:46.717Z,12.30
2018-09-24T11:34:22.761Z,12.10
2018-09-24T11:37:02.728Z,11.90
2018-09-24T11:39:37.653Z,11.90
2018-09-24T11:42:12.729Z,12.00
2018-09-24T11:44:48.045Z,11.90
2018-09-24T11:47:23.513Z,11.60
2018-09-24T11:50:02.070Z,11.60
2018-09-24T11:52:37.197Z,11.50
2018-09-24T11:55:14.385Z,12.00
2018-09-24T11:57:49.541Z,14.70
2018-09-24T12:00:24.545Z,17.90
2018-09-24T12:03:00.621Z,20.90
2018-09-24T12:05:36.768Z,20.60
2018-09-24T12:08:13.781Z,21.00
2018-09-24T12:10:53.257Z,20.80
2018-09-24T12:13:30.517Z,19.90
2018-09-24T12:16:05.645Z,17.00
2018-09-24T12:18:44.089Z,15.20
2018-09-24T12:21:19.174Z,14.50
2018-09-24T12:23:54.281Z,14.60
2018-09-24T12:26:30.314Z,15.50
2018-09-24T12:29:09.465Z,14.40
2018-09-24T12:31:44.549Z,13.10
2018-09-24T12:34:23.437Z,12.60
2018-09-24T12:36:58.530Z,14.80
2018-09-24T12:39:37.689Z,14.90
2018-09-24T12:42:12.809Z,16.40
2018-09-24T12:44:47.906Z,19.80
2018-09-24T12:47:23.022Z,19.20
2018-09-24T12:50:00.086Z,16.80
2018-09-24T12:52:36.206Z,15.80
2018-09-24T12:55:13.925Z,14.90
2018-09-24T12:57:48.981Z,13.80
2018-09-24T13:00:30.425Z,16.20
2018-09-24T13:03:06.402Z,18.50
2018-09-24T13:05:41.595Z,19.70
2018-09-24T13:08:18.804Z,17.90
2018-09-24T13:10:57.437Z,16.10
2018-09-24T13:13:32.638Z,14.90
2018-09-24T13:16:08.713Z,14.00
2018-09-24T13:18:43.782Z,15.90
2018-09-24T13:21:18.663Z,16.70
2018-09-24T13:23:59.467Z,17.70
2018-09-24T13:26:35.666Z,17.20
2018-09-24T13:29:10.754Z,17.70
2018-09-24T13:31:46.882Z,16.70
2018-09-24T13:34:21.905Z,16.70
2018-09-24T13:36:57.103Z,17.40
2018-09-24T13:39:32.193Z,16.70
2018-09-24T13:42:08.217Z,15.10
2018-09-24T13:44:53.085Z,14.60
2018-09-24T13:47:31.283Z,13.90
2018-09-24T13:50:06.449Z,13.80
2018-09-24T13:52:42.237Z,14.10
2018-09-24T13:55:19.333Z,15.40
2018-09-24T13:57:54.469Z,17.10
2018-09-24T14:00:29.561Z,18.70
2018-09-24T14:03:05.225Z,20.30
2018-09-24T14:05:40.277Z,20.30
2018-09-24T14:08:15.466Z,19.30
2018-09-24T14:10:51.718Z,19.70
2018-09-24T14:13:26.842Z,19.20
2018-09-24T14:16:01.998Z,19.10
2018-09-24T14:18:38.071Z,18.20
2018-09-24T14:21:15.141Z,16.60
2018-09-24T14:23:54.733Z,15.50
2018-09-24T14:26:31.785Z,14.30
2018-09-24T14:29:15.145Z,13.80
2018-09-24T14:31:50.327Z,13.80
2018-09-24T14:34:25.429Z,14.10
2018-09-24T14:37:00.870Z,14.30
2018-09-24T14:39:35.838Z,14.70
2018-09-24T14:42:10.938Z,14.80
2018-09-24T14:44:46.101Z,14.80
2018-09-24T14:47:21.286Z,16.60
2018-09-24T14:50:00.457Z,17.90
2018-09-24T14:52:40.465Z,19.00
2018-09-24T14:55:15.480Z,17.00
2018-09-24T14:57:56.637Z,15.70
2018-09-24T15:00:32.669Z,14.60
2018-09-24T15:03:07.946Z,14.00
2018-09-24T15:05:43.025Z,13.70
2018-09-24T15:08:19.197Z,13.70
2018-09-24T15:10:54.345Z,13.40
2018-09-24T15:13:32.578Z,13.20
2018-09-24T15:16:09.678Z,13.00
2018-09-24T15:18:51.014Z,13.20
2018-09-24T15:21:27.634Z,15.10
2018-09-24T15:24:02.819Z,15.00
2018-09-24T15:26:37.793Z,16.40
2018-09-24T15:29:12.910Z,16.10
2018-09-24T15:31:47.902Z,15.60
2018-09-24T15:34:36.881Z,14.30
2018-09-24T15:37:20.008Z,13.90
2018-09-24T15:39:55.082Z,13.50
2018-09-24T15:42:34.330Z,13.00
2018-09-24T15:45:09.358Z,13.40
2018-09-24T15:47:44.534Z,14.10
2018-09-24T15:50:19.489Z,14.40
2018-09-24T15:52:54.602Z,14.10
2018-09-24T15:55:30.662Z,14.80
2018-09-24T15:58:07.857Z,15.70
2018-09-24T16:00:46.226Z,16.00
2018-09-24T16:03:21.193Z,16.20
2018-09-24T16:05:57.258Z,16.10
2018-09-24T16:08:32.469Z,15.70
2018-09-24T16:11:22.677Z,15.50
2018-09-24T16:13:59.854Z,15.30
2018-09-24T16:16:34.868Z,14.70
2018-09-24T16:19:13.729Z,14.50
2018-09-24T16:21:48.881Z,14.70
2018-09-24T16:24:24.113Z,14.60
2018-09-24T16:27:01.156Z,14.40
2018-09-24T16:29:37.348Z,14.20
2018-09-24T16:32:16.418Z,14.10
2018-09-24T16:34:53.482Z,13.80
2018-09-24T16:37:35.600Z,13.40
2018-09-24T16:40:15.966Z,12.50
2018-09-24T16:42:57.894Z,11.90
2018-09-24T16:45:44.493Z,11.40
2018-09-24T16:48:20.548Z,11.10
2018-09-24T16:50:57.817Z,10.90
2018-09-24T16:53:32.817Z,10.70
2018-09-24T16:56:11.241Z,10.60
2018-09-24T16:58:46.457Z,10.40
2018-09-24T17:01:28.761Z,10.30
2018-09-24T17:04:04.893Z,10.10
2018-09-24T17:06:44.677Z,9.90
2018-09-24T17:09:20.813Z,9.80
2018-09-24T17:12:01.358Z,9.70
2018-09-24T17:14:41.145Z,9.60
2018-09-24T17:17:17.248Z,9.50
2018-09-24T17:19:54.369Z,9.40
2018-09-24T17:22:30.321Z,9.30
2018-09-24T17:25:10.117Z,9.10
2018-09-24T17:27:49.017Z,9.00
2018-09-24T17:30:25.254Z,8.90
2018-09-24T17:33:01.383Z,8.80
2018-09-24T17:35:38.401Z,8.70
2018-09-24T17:38:15.441Z,8.60
2018-09-24T17:40:55.122Z,8.50
2018-09-24T17:43:30.126Z,8.50
2018-09-24T17:46:08.388Z,8.50
2018-09-24T17:48:43.433Z,8.40
2018-09-24T17:51:20.425Z,8.40
2018-09-24T17:53:55.429Z,8.30
2018-09-24T17:56:32.425Z,8.20
2018-09-24T17:59:09.345Z,8.10
2018-09-24T18:01:44.435Z,8.00
2018-09-24T18:04:20.409Z,7.90
2018-09-24T18:07:03.445Z,7.70
2018-09-24T18:09:38.681Z,7.60
2018-09-24T18:12:13.693Z,7.50
2018-09-24T18:14:52.217Z,7.50
2018-09-24T18:17:27.484Z,7.30
2018-09-24T18:20:03.574Z,7.30
2018-09-24T18:22:39.681Z,7.20
2018-09-24T18:25:19.985Z,7.10
2018-09-24T18:27:59.637Z,7.00
2018-09-24T18:30:35.629Z,6.90
2018-09-24T18:33:16.285Z,6.80
2018-09-24T18:35:51.441Z,6.70
2018-09-24T18:38:26.481Z,6.60
2018-09-24T18:41:01.706Z,6.50
2018-09-24T18:43:37.641Z,6.50
2018-09-24T18:46:13.009Z,6.50
2018-09-24T18:48:48.161Z,6.40
2018-09-24T18:51:27.269Z,6.30
2018-09-24T18:54:09.636Z,6.20
2018-09-24T18:56:45.689Z,6.10
2018-09-24T18:59:20.934Z,5.90
2018-09-24T19:01:56.152Z,6.00
2018-09-24T19:04:36.037Z,5.90
2018-09-24T19:07:11.241Z,5.80
2018-09-24T19:09:46.319Z,5.70
2018-09-24T19:12:21.458Z,5.60
2018-09-24T19:14:57.382Z,5.50
2018-09-24T19:17:34.404Z,5.50
2018-09-24T19:20:10.501Z,5.40
2018-09-24T19:22:47.625Z,5.40
2018-09-24T19:25:22.666Z,5.60
2018-09-24T19:28:01.360Z,5.70
2018-09-24T19:30:36.389Z,5.90
2018-09-24T19:33:11.453Z,6.10
2018-09-24T19:35:48.545Z,6.30
2018-09-24T19:38:24.625Z,6.40
2018-09-24T19:41:03.237Z,6.70
2018-09-24T19:43:38.255Z,6.80
2018-09-24T19:46:14.413Z,7.00
2018-09-24T19:48:52.609Z,7.30
2018-09-24T19:51:29.773Z,7.30
2018-09-24T19:54:05.817Z,7.30
2018-09-24T19:56:42.820Z,7.30
2018-09-24T19:59:19.845Z,7.20
2018-09-24T20:01:57.975Z,7.10
2018-09-24T20:04:38.005Z,7.10
2018-09-24T20:07:13.125Z,7.00
2018-09-24T20:09:48.385Z,6.90
2018-09-24T20:12:34.725Z,7.00
2018-09-24T20:15:13.477Z,7.00
2018-09-24T20:17:50.593Z,7.10
2018-09-24T20:20:29.504Z,7.20
2018-09-24T20:23:08.298Z,7.30
2018-09-24T20:25:44.401Z,7.30
2018-09-24T20:28:19.397Z,7.40
2018-09-24T20:30:54.657Z,7.50
2018-09-24T20:33:30.001Z,7.50
2018-09-24T20:36:14.985Z,7.50
2018-09-24T20:38:51.037Z,7.30
2018-09-24T20:41:26.132Z,7.10
2018-09-24T20:44:02.313Z,6.80
2018-09-24T20:46:38.397Z,6.70
2018-09-24T20:49:14.421Z,6.50
2018-09-24T20:51:50.497Z,6.30
2018-09-24T20:54:25.709Z,6.10
2018-09-24T20:57:02.883Z,5.90
2018-09-24T20:59:41.169Z,5.80
2018-09-24T21:02:16.337Z,5.60
2018-09-24T21:04:51.557Z,5.50
2018-09-24T21:07:26.741Z,5.30
2018-09-24T21:10:01.733Z,5.20
2018-09-24T21:12:37.828Z,5.20
2018-09-24T21:15:13.357Z,5.10
2018-09-24T21:17:48.391Z,5.10
2018-09-24T21:20:23.533Z,5.10
2018-09-24T21:22:58.621Z,5.10
2018-09-24T21:25:34.649Z,5.00
2018-09-24T21:28:13.357Z,4.80
2018-09-24T21:30:48.441Z,4.70
2018-09-24T21:33:24.593Z,4.60
2018-09-24T21:36:00.619Z,4.60
2018-09-24T21:38:37.671Z,4.50
2018-09-24T21:41:12.945Z,4.40
2018-09-24T21:43:49.104Z,4.30
2018-09-24T21:46:24.340Z,4.20
2018-09-24T21:48:59.457Z,4.10
2018-09-24T21:51:40.877Z,4.10
2018-09-24T21:54:17.968Z,4.10
2018-09-24T21:56:52.937Z,4.10
2018-09-24T21:59:28.169Z,4.00
2018-09-24T22:02:07.901Z,4.00
2018-09-24T22:04:43.889Z,4.00
2018-09-24T22:07:18.968Z,4.00
2018-09-24T22:09:59.900Z,3.90
2018-09-24T22:12:39.477Z,3.90
2018-09-24T22:15:18.901Z,3.90
2018-09-24T22:18:02.356Z,4.00
2018-09-24T22:20:37.568Z,4.00
2018-09-24T22:23:12.589Z,3.90
2018-09-24T22:25:51.577Z,3.80
2018-09-24T22:28:27.621Z,3.80
2018-09-24T22:31:02.809Z,3.80
2018-09-24T22:33:43.573Z,3.80
2018-09-24T22:36:18.680Z,3.90
2018-09-24T22:38:53.856Z,4.00
2018-09-24T22:41:32.781Z,4.20
2018-09-24T22:44:08.834Z,4.40
2018-09-24T22:46:43.941Z,4.40
2018-09-24T22:49:24.100Z,4.50
2018-09-24T22:51:59.264Z,4.40
2018-09-24T22:54:35.448Z,4.30
2018-09-24T22:57:11.677Z,4.30
2018-09-24T22:59:46.861Z,4.30
2018-09-24T23:02:21.945Z,4.20
2018-09-24T23:04:58.021Z,4.30
2018-09-24T23:07:34.053Z,4.30
2018-09-24T23:10:10.736Z,4.30
2018-09-24T23:12:47.000Z,4.20
2018-09-24T23:15:22.217Z,4.10
2018-09-24T23:17:58.412Z,4.00
2018-09-24T23:20:34.405Z,3.90
2018-09-24T23:23:10.577Z,3.80
2018-09-24T23:25:45.816Z,3.80
2018-09-24T23:28:21.105Z,3.80
2018-09-24T23:30:59.441Z,3.80
2018-09-24T23:33:36.517Z,3.90
2018-09-24T23:36:11.553Z,3.90
2018-09-24T23:38:47.726Z,3.80
2018-09-24T23:41:25.945Z,3.70
2018-09-24T23:44:00.937Z,3.60
2018-09-24T23:46:37.081Z,3.50
2018-09-24T23:49:12.465Z,3.40
2018-09-24T23:51:48.948Z,3.30
2018-09-24T23:54:24.081Z,3.40
2018-09-24T23:56:59.309Z,3.50
2018-09-24T23:59:34.324Z,3.50
